Dagsboro, Delaware
Current Conditions -  °F | °C
As of 12:54 AM on Wednesday 28 Jan 2015 (Local Time) from KGED Reporting Station
Clear Clear  
Wind Chill: 19°   Ceiling: Unl
Heat Index: 28°   Visibility: 10mi
Dew Point:   Wind: 10mph
Humidity: 43%   Direction: 340°NNW
Pressure: 29.91"   Gusts: 22mph
Location:  38.55°N, 75.25°W
Report Text: KGED 280554Z AUTO 34009G19KT 10SM CLR M02/M13 A2991 RMK AO2 SLP129 T10221133 10000 21022 53018
Loading
Personal Weather Stations






























Interactive Weather Map New forecast layout! Learn more

10-Day Weather Forecast

Advertisements
Track Severe Weather on mobile